Peru, IN

10:21 AM EDT on August 19, 2017 (GMT -0400)
Grissom Air Reserve Base | | Change Station

Elev 810 ft 40.65 °N, 86.15 °W | Updated 23 minutes ago

Clear
Clear
71 °F
Feels Like 71 °F
N
6
Wind Variable Wind from NNW

Today
High -- | Low -- °F
--% Chance of Precip.
Yesterday
High -- | Low -- °F
Precip. -- in
Pressure 29.95 in
Visibility 10.0 miles
Clouds Clear
Dew Point 66 °F
Humidity 82%
Rainfall 0.00 in
Snow Depth Not available.
6:59 AM 8:36 PM
Waning Crescent, 6% visible
METAR KGUS 191358Z AUTO 34005KT 10SM CLR 22/19 A2995 RMK AO2 SLP141 T02180187 $
Pressure 29.95 in
Visibility 10.0 miles
Clouds Clear
Dew Point 66 °F
Humidity 82%
Rainfall 0.00 in
Snow Depth Not available.
6:59 AM 8:36 PM
Waning Crescent, 6% visible
METAR KGUS 191358Z AUTO 34005KT 10SM CLR 22/19 A2995 RMK AO2 SLP141 T02180187 $

Get Severe Weather Alerts

Thanks for signing up!

Be on the lookout for a verification email in your inbox.

You'll start receiving the daily forecast at 6 AM.

×

10-Day Weather Forecast

Almanac

Astronomy

Aug. 19, 2017 Rise Set
Actual Time
Civil Twilight
Nautical Twilight
Astronomical Twilight
Moon
Length of Visible Light
Length of Day
Tomorrow will be .
, % of the Moon is Illuminated

Today's Extremes

State Highs State Lows

Community

WunderPhotos

Category 6

Welcome to Category 6. This is the collective home for Weather Underground's featured writeups by Dr. Jeff Masters (right), Bob Henson (left), Chris Burt, and other regular contributors.

Nearby

Air Quality

  Air Quality AQ Index Pollutant
Not available.

Snow Depth

Station Depth Elevation

Earthquake Activity

City Distance Mag. Time & Date
Minimum magnitude displayed is 2.5.

Coastal Water Temperatures

Place Temperature

Stations

Nearby Weather Stations

Station Location Temp. Windchill Dew Point Humidity Wind Precip. Elev Updated Type
                   

Watches & Warnings

There are currently no watches in effect.